Time;durP1;ratioP1;P1;durP2;ratioP2;P2;SDS_P1;SDS_P2;PMS_P1;PMS_P2;Temp;Humidity;BMP_temperature;BMP_pressure;BME280_temperature;BME280_humidity;BME280_pressure;Samples;Min_cycle;Max_cycle;Signal;HPM_P1;HPM_P2
2022/02/23 00:00:31;;;;;;;21.17;7.60;;;;;;;;;;4864252;29;20089;-74
2022/02/23 00:02:57;;;;;;;22.20;8.23;;;;;;;;;;4862562;29;20033;-74
2022/02/23 00:05:24;;;;;;;21.17;7.90;;;;;;;;;;4856553;29;20547;-74
2022/02/23 00:07:50;;;;;;;20.77;7.65;;;;;;;;;;4865411;29;20072;-74
2022/02/23 00:10:16;;;;;;;17.95;8.43;;;;;;;;;;4857049;29;20048;-74
2022/02/23 00:12:42;;;;;;;21.63;8.30;;;;;;;;;;4856435;29;20506;-74
2022/02/23 00:15:09;;;;;;;12.02;3.88;;;;;;;;;;4857023;29;20049;-74
2022/02/23 00:17:37;;;;;;;10.52;4.00;;;;;;;;;;4861757;29;20033;-74
2022/02/23 00:20:04;;;;;;;10.48;3.88;;;;;;;;;;4860202;29;20038;-74
2022/02/23 00:22:32;;;;;;;10.23;4.47;;;;;;;;;;4859157;29;20037;-74
2022/02/23 00:24:58;;;;;;;13.02;5.78;;;;;;;;;;4863953;29;20030;-74
2022/02/23 00:27:24;;;;;;;17.92;6.47;;;;;;;;;;4857593;29;20056;-74
2022/02/23 00:29:50;;;;;;;18.83;7.32;;;;;;;;;;4857574;29;20033;-74
2022/02/23 00:32:16;;;;;;;18.75;6.90;;;;;;;;;;4857514;29;20678;-74
2022/02/23 00:34:42;;;;;;;14.80;5.07;;;;;;;;;;4857655;29;20158;-74
2022/02/23 00:37:08;;;;;;;15.32;6.30;;;;;;;;;;4861886;29;20088;-74
2022/02/23 00:39:34;;;;;;;11.38;4.75;;;;;;;;;;4873116;29;20047;-74
2022/02/23 00:42:00;;;;;;;11.02;4.63;;;;;;;;;;4868447;29;20079;-75
2022/02/23 00:44:28;;;;;;;17.70;5.85;;;;;;;;;;4856314;29;20114;-74
2022/02/23 00:46:54;;;;;;;12.75;5.43;;;;;;;;;;4865365;29;20071;-74
2022/02/23 00:49:20;;;;;;;14.23;6.15;;;;;;;;;;4864765;29;20039;-74
2022/02/23 00:51:46;;;;;;;23.10;9.82;;;;;;;;;;4862109;29;20046;-74
2022/02/23 00:54:12;;;;;;;21.77;8.70;;;;;;;;;;4859608;29;20120;-75
2022/02/23 00:56:38;;;;;;;15.40;5.63;;;;;;;;;;4860292;29;20520;-74
2022/02/23 00:59:05;;;;;;;10.68;4.78;;;;;;;;;;4860849;29;20033;-74
2022/02/23 01:01:31;;;;;;;9.07;3.95;;;;;;;;;;4869636;29;20475;-74
2022/02/23 01:03:57;;;;;;;11.35;4.25;;;;;;;;;;4860058;29;20041;-74
2022/02/23 01:06:23;;;;;;;11.52;4.43;;;;;;;;;;4860084;29;20391;-74
2022/02/23 01:08:49;;;;;;;17.25;5.22;;;;;;;;;;4863508;29;20044;-74
2022/02/23 01:11:20;;;;;;;13.13;5.50;;;;;;;;;;4866284;29;20116;-73
2022/02/23 01:13:49;;;;;;;13.68;6.30;;;;;;;;;;4860066;29;20025;-73
2022/02/23 01:16:15;;;;;;;21.75;7.30;;;;;;;;;;4859284;29;20376;-74
2022/02/23 01:18:42;;;;;;;12.70;6.70;;;;;;;;;;4870632;29;20060;-74
2022/02/23 01:21:08;;;;;;;18.45;7.22;;;;;;;;;;4864944;29;20076;-74
2022/02/23 01:23:34;;;;;;;18.05;6.70;;;;;;;;;;4860639;29;20044;-74
2022/02/23 01:26:01;;;;;;;15.95;6.65;;;;;;;;;;4872173;29;20391;-74
2022/02/23 01:28:27;;;;;;;9.52;4.45;;;;;;;;;;4861718;29;20041;-74
2022/02/23 01:30:53;;;;;;;12.73;5.20;;;;;;;;;;4860665;29;20480;-74
2022/02/23 01:33:19;;;;;;;17.88;6.25;;;;;;;;;;4859724;29;20045;-74
2022/02/23 01:35:45;;;;;;;13.40;5.32;;;;;;;;;;4862332;29;20040;-74
2022/02/23 01:38:11;;;;;;;12.38;4.55;;;;;;;;;;4859404;29;20061;-74
2022/02/23 01:40:37;;;;;;;14.38;4.40;;;;;;;;;;4859609;29;20036;-74
2022/02/23 01:43:03;;;;;;;12.50;4.97;;;;;;;;;;4862012;29;20042;-74
2022/02/23 01:45:29;;;;;;;13.63;4.75;;;;;;;;;;4859497;29;20081;-74
2022/02/23 01:47:55;;;;;;;10.23;3.85;;;;;;;;;;4859881;29;20049;-74
2022/02/23 01:50:21;;;;;;;16.60;6.85;;;;;;;;;;4859404;29;20769;-74
2022/02/23 01:52:47;;;;;;;17.77;6.25;;;;;;;;;;4857976;29;20040;-74
2022/02/23 01:55:13;;;;;;;14.05;6.18;;;;;;;;;;4860648;29;20037;-74
2022/02/23 01:57:40;;;;;;;15.40;6.55;;;;;;;;;;4866331;29;20053;-74
2022/02/23 02:00:08;;;;;;;10.93;4.32;;;;;;;;;;4860541;29;20038;-74
2022/02/23 02:02:34;;;;;;;9.63;4.05;;;;;;;;;;4859190;29;20037;-74
2022/02/23 02:05:00;;;;;;;11.75;4.18;;;;;;;;;;4858934;29;20039;-74
2022/02/23 02:07:26;;;;;;;9.45;4.65;;;;;;;;;;4862602;29;20128;-74
2022/02/23 02:09:52;;;;;;;8.73;3.75;;;;;;;;;;4858231;29;20105;-74
2022/02/23 02:12:18;;;;;;;10.18;4.05;;;;;;;;;;4859507;29;20060;-74
2022/02/23 02:14:44;;;;;;;9.95;3.58;;;;;;;;;;4858406;29;20048;-75
2022/02/23 02:17:10;;;;;;;9.00;3.63;;;;;;;;;;4871237;29;20043;-74
2022/02/23 02:19:36;;;;;;;10.63;3.05;;;;;;;;;;4874761;29;20108;-74
2022/02/23 02:22:04;;;;;;;8.65;2.60;;;;;;;;;;4865284;29;20369;-74
2022/02/23 02:24:31;;;;;;;6.82;2.80;;;;;;;;;;4871119;29;20033;-74
2022/02/23 02:26:59;;;;;;;10.25;3.22;;;;;;;;;;4858325;29;20120;-74
2022/02/23 02:29:25;;;;;;;11.00;3.22;;;;;;;;;;4874699;29;20037;-74
2022/02/23 02:31:51;;;;;;;11.48;3.10;;;;;;;;;;4861797;29;20037;-74
2022/02/23 02:34:18;;;;;;;9.43;2.72;;;;;;;;;;4871476;29;20048;-74
2022/02/23 02:36:44;;;;;;;9.23;3.25;;;;;;;;;;4876696;29;20037;-74
2022/02/23 02:39:11;;;;;;;9.38;3.17;;;;;;;;;;4870304;29;20051;-74
2022/02/23 02:41:37;;;;;;;10.43;3.38;;;;;;;;;;4866795;29;20049;-74
2022/02/23 02:44:04;;;;;;;13.82;3.47;;;;;;;;;;4863373;29;20061;-74
2022/02/23 02:46:30;;;;;;;8.52;2.92;;;;;;;;;;4877150;29;20076;-74
2022/02/23 02:48:56;;;;;;;11.18;3.00;;;;;;;;;;4870128;29;20070;-74
2022/02/23 02:51:22;;;;;;;9.98;3.42;;;;;;;;;;4876644;29;20501;-74
2022/02/23 02:53:48;;;;;;;9.20;3.03;;;;;;;;;;4876605;29;20438;-74
2022/02/23 02:56:14;;;;;;;11.30;2.33;;;;;;;;;;4877179;29;20080;-74
2022/02/23 02:58:40;;;;;;;8.35;3.33;;;;;;;;;;4864753;29;20057;-74
2022/02/23 03:01:06;;;;;;;10.10;4.35;;;;;;;;;;4858337;29;20042;-74
2022/02/23 03:03:32;;;;;;;10.73;4.75;;;;;;;;;;4857558;29;20030;-74
2022/02/23 03:05:58;;;;;;;13.40;5.72;;;;;;;;;;4864764;29;20048;-74
2022/02/23 03:08:24;;;;;;;31.73;15.80;;;;;;;;;;4857905;29;20041;-74
2022/02/23 03:10:50;;;;;;;15.70;6.32;;;;;;;;;;4857632;29;20383;-74
2022/02/23 03:13:16;;;;;;;14.32;5.22;;;;;;;;;;4858031;29;20071;-75
2022/02/23 03:15:44;;;;;;;13.85;6.85;;;;;;;;;;4857121;29;20112;-74
2022/02/23 03:18:10;;;;;;;26.73;16.23;;;;;;;;;;4863141;29;20157;-74
2022/02/23 03:20:36;;;;;;;20.08;13.90;;;;;;;;;;4849144;29;20124;-74
2022/02/23 03:23:02;;;;;;;19.23;11.95;;;;;;;;;;4858071;29;20041;-74
2022/02/23 03:25:28;;;;;;;13.68;6.63;;;;;;;;;;4857186;29;20034;-74
2022/02/23 03:27:54;;;;;;;8.63;5.88;;;;;;;;;;4858633;29;20044;-74
2022/02/23 03:30:20;;;;;;;11.18;4.95;;;;;;;;;;4857112;29;20058;-74
2022/02/23 03:32:46;;;;;;;12.20;5.13;;;;;;;;;;4858128;29;20429;-74
2022/02/23 03:35:12;;;;;;;8.02;3.20;;;;;;;;;;4859257;29;20593;-74
2022/02/23 03:37:38;;;;;;;9.85;3.20;;;;;;;;;;4865329;29;20097;-75
2022/02/23 03:40:05;;;;;;;11.07;3.28;;;;;;;;;;4864404;29;20033;-74
2022/02/23 03:42:31;;;;;;;11.10;3.70;;;;;;;;;;4875787;29;20029;-74
2022/02/23 03:44:57;;;;;;;12.15;3.85;;;;;;;;;;4863505;29;20044;-74
2022/02/23 03:47:23;;;;;;;12.32;4.28;;;;;;;;;;4859671;29;20029;-74
2022/02/23 03:49:49;;;;;;;19.35;9.98;;;;;;;;;;4875649;29;20048;-74
2022/02/23 03:52:15;;;;;;;20.15;11.18;;;;;;;;;;4861374;29;20041;-74
2022/02/23 03:54:41;;;;;;;21.42;12.60;;;;;;;;;;4866744;29;20033;-74
2022/02/23 03:57:07;;;;;;;17.25;10.25;;;;;;;;;;4875649;29;20041;-74
2022/02/23 03:59:33;;;;;;;18.85;8.85;;;;;;;;;;4873093;29;20480;-74
2022/02/23 04:01:59;;;;;;;14.13;7.28;;;;;;;;;;4876293;29;20045;-74
2022/02/23 04:04:25;;;;;;;13.10;7.35;;;;;;;;;;4867425;29;20040;-74
2022/02/23 04:06:51;;;;;;;12.52;4.93;;;;;;;;;;4876202;29;20037;-74
2022/02/23 04:09:18;;;;;;;12.30;4.78;;;;;;;;;;4872373;29;20030;-74
2022/02/23 04:11:44;;;;;;;11.10;4.20;;;;;;;;;;4840475;29;20042;-75
2022/02/23 04:14:10;;;;;;;11.50;4.78;;;;;;;;;;4856572;29;20057;-74
2022/02/23 04:16:36;;;;;;;10.88;4.70;;;;;;;;;;4857027;29;20769;-74
2022/02/23 04:19:03;;;;;;;9.75;4.78;;;;;;;;;;4867424;29;20032;-74
2022/02/23 04:21:29;;;;;;;9.90;3.92;;;;;;;;;;4872983;29;20034;-74
2022/02/23 04:23:55;;;;;;;11.50;3.63;;;;;;;;;;4864006;29;20594;-74
2022/02/23 04:26:21;;;;;;;15.05;5.15;;;;;;;;;;4857135;29;20544;-74
2022/02/23 04:28:48;;;;;;;13.95;6.30;;;;;;;;;;4865643;29;20456;-74
2022/02/23 04:31:14;;;;;;;13.23;4.68;;;;;;;;;;4869421;29;20473;-74
2022/02/23 04:33:40;;;;;;;13.65;4.78;;;;;;;;;;4860348;29;20048;-74
2022/02/23 04:36:07;;;;;;;12.30;3.85;;;;;;;;;;4857697;29;20045;-74
2022/02/23 04:38:33;;;;;;;11.80;4.20;;;;;;;;;;4864754;29;20105;-75
2022/02/23 04:40:59;;;;;;;13.07;4.55;;;;;;;;;;4871729;29;20124;-75
2022/02/23 04:43:25;;;;;;;7.78;3.55;;;;;;;;;;4860846;29;20161;-74
2022/02/23 04:45:51;;;;;;;13.52;4.13;;;;;;;;;;4861447;29;20033;-74
2022/02/23 04:48:18;;;;;;;6.57;1.80;;;;;;;;;;4860926;29;20048;-75
2022/02/23 04:50:44;;;;;;;7.25;1.50;;;;;;;;;;4863346;29;20081;-74
2022/02/23 04:53:10;;;;;;;10.60;2.45;;;;;;;;;;4870011;29;20041;-74
2022/02/23 04:55:36;;;;;;;9.35;2.80;;;;;;;;;;4860493;29;20072;-74
2022/02/23 04:58:07;;;;;;;8.60;3.22;;;;;;;;;;4857468;29;20408;-74
2022/02/23 05:00:41;;;;;;;7.57;3.22;;;;;;;;;;4860637;29;20025;-74
2022/02/23 05:03:07;;;;;;;11.80;3.40;;;;;;;;;;4875243;29;20127;-74
2022/02/23 05:05:33;;;;;;;8.30;3.60;;;;;;;;;;4861962;29;20154;-74
2022/02/23 05:07:59;;;;;;;9.88;3.60;;;;;;;;;;4856737;29;20083;-74
2022/02/23 05:10:26;;;;;;;13.70;4.53;;;;;;;;;;4859737;29;20037;-74
2022/02/23 05:12:52;;;;;;;10.63;3.83;;;;;;;;;;4860808;29;20041;-74
2022/02/23 05:15:18;;;;;;;10.55;4.28;;;;;;;;;;4857311;29;20030;-74
2022/02/23 05:17:44;;;;;;;11.27;4.43;;;;;;;;;;4873086;29;20702;-74
2022/02/23 05:20:11;;;;;;;8.60;3.47;;;;;;;;;;4856158;29;20052;-74
2022/02/23 05:22:37;;;;;;;9.52;2.72;;;;;;;;;;4863662;29;20089;-74
2022/02/23 05:25:03;;;;;;;16.33;5.35;;;;;;;;;;4856927;29;20033;-74
2022/02/23 05:27:29;;;;;;;19.25;7.28;;;;;;;;;;4870237;29;20629;-74
2022/02/23 05:29:55;;;;;;;12.40;5.07;;;;;;;;;;4866941;29;20107;-74
2022/02/23 05:32:21;;;;;;;11.07;4.50;;;;;;;;;;4862411;29;20049;-74
2022/02/23 05:34:47;;;;;;;10.85;3.90;;;;;;;;;;4859605;29;20044;-74
2022/02/23 05:37:13;;;;;;;9.95;4.72;;;;;;;;;;4858764;29;20065;-74
2022/02/23 05:39:39;;;;;;;8.50;3.25;;;;;;;;;;4867478;29;20029;-74
2022/02/23 05:42:05;;;;;;;10.00;3.50;;;;;;;;;;4859338;29;20403;-74
2022/02/23 05:44:31;;;;;;;13.32;4.15;;;;;;;;;;4859584;29;20105;-74
2022/02/23 05:46:57;;;;;;;11.25;3.83;;;;;;;;;;4859387;29;20048;-74
2022/02/23 05:49:23;;;;;;;13.38;4.70;;;;;;;;;;4875958;29;20033;-74
2022/02/23 05:51:50;;;;;;;14.90;4.53;;;;;;;;;;4860369;29;20045;-74
2022/02/23 05:54:16;;;;;;;15.30;6.85;;;;;;;;;;4866081;29;20037;-75
2022/02/23 05:56:43;;;;;;;18.77;8.52;;;;;;;;;;4859630;29;20038;-74
2022/02/23 05:59:09;;;;;;;16.80;7.38;;;;;;;;;;4862791;29;20029;-74
2022/02/23 06:01:36;;;;;;;16.63;8.18;;;;;;;;;;4859104;29;20767;-74
2022/02/23 06:04:02;;;;;;;13.60;7.43;;;;;;;;;;4858623;29;20036;-74
2022/02/23 06:06:29;;;;;;;11.00;5.90;;;;;;;;;;4869611;29;20045;-74
2022/02/23 06:08:55;;;;;;;11.82;4.78;;;;;;;;;;4862273;29;20026;-74
2022/02/23 06:11:21;;;;;;;13.35;4.82;;;;;;;;;;4862409;29;20041;-74
2022/02/23 06:13:51;;;;;;;18.08;6.95;;;;;;;;;;4855191;29;20025;-74
2022/02/23 06:16:22;;;;;;;14.38;8.18;;;;;;;;;;4863740;29;20033;-74
2022/02/23 06:18:48;;;;;;;16.35;7.47;;;;;;;;;;4863276;29;20028;-74
2022/02/23 06:21:14;;;;;;;19.65;7.75;;;;;;;;;;4864022;29;20704;-74
2022/02/23 06:23:40;;;;;;;21.42;9.45;;;;;;;;;;4861275;29;20642;-74
2022/02/23 06:26:06;;;;;;;29.17;14.18;;;;;;;;;;4862852;29;20120;-74
2022/02/23 06:28:33;;;;;;;21.40;9.75;;;;;;;;;;4857375;29;20033;-74
2022/02/23 06:30:59;;;;;;;15.85;5.47;;;;;;;;;;4865637;29;20120;-74
2022/02/23 06:33:25;;;;;;;15.23;5.35;;;;;;;;;;4861690;29;20040;-74
2022/02/23 06:35:52;;;;;;;15.23;7.22;;;;;;;;;;4867274;29;20132;-73
2022/02/23 06:38:18;;;;;;;11.32;5.13;;;;;;;;;;4860486;29;20104;-73
2022/02/23 06:40:45;;;;;;;12.35;5.07;;;;;;;;;;4859203;29;20626;-73
2022/02/23 06:43:13;;;;;;;11.27;5.38;;;;;;;;;;4869479;29;20037;-74
2022/02/23 06:45:39;;;;;;;12.73;5.72;;;;;;;;;;4868159;29;20033;-73
2022/02/23 06:48:05;;;;;;;17.00;7.40;;;;;;;;;;4862034;29;20132;-73
2022/02/23 06:50:32;;;;;;;15.00;6.78;;;;;;;;;;4860461;29;20487;-73
2022/02/23 06:52:59;;;;;;;20.92;7.50;;;;;;;;;;4860095;29;20468;-73
2022/02/23 06:55:25;;;;;;;16.88;6.97;;;;;;;;;;4857954;29;20037;-73
2022/02/23 06:57:51;;;;;;;13.70;6.40;;;;;;;;;;4860110;29;20041;-73
2022/02/23 07:00:18;;;;;;;19.38;8.32;;;;;;;;;;4857240;29;20029;-73
2022/02/23 07:02:44;;;;;;;19.55;7.60;;;;;;;;;;4861409;29;20476;-73
2022/02/23 07:05:11;;;;;;;15.93;7.10;;;;;;;;;;4859874;29;20112;-73
2022/02/23 07:07:37;;;;;;;15.10;7.78;;;;;;;;;;4864154;29;20047;-73
2022/02/23 07:10:08;;;;;;;25.80;9.40;;;;;;;;;;4862942;29;20372;-73
2022/02/23 07:12:36;;;;;;;13.20;6.88;;;;;;;;;;4864316;29;20045;-73
2022/02/23 07:15:02;;;;;;;20.67;9.63;;;;;;;;;;4860839;29;20037;-73
2022/02/23 07:17:28;;;;;;;21.33;8.80;;;;;;;;;;4863143;29;20082;-73
2022/02/23 07:19:54;;;;;;;17.65;9.02;;;;;;;;;;4861335;29;20507;-73
2022/02/23 07:22:21;;;;;;;20.45;8.80;;;;;;;;;;4867728;29;20045;-73
2022/02/23 07:24:47;;;;;;;22.98;8.60;;;;;;;;;;4861929;29;21164;-73
2022/02/23 07:27:13;;;;;;;22.88;8.52;;;;;;;;;;4864501;29;20116;-73
2022/02/23 07:29:40;;;;;;;23.90;8.73;;;;;;;;;;4859782;29;20045;-73
2022/02/23 07:32:07;;;;;;;30.55;8.93;;;;;;;;;;4860279;29;20448;-73
2022/02/23 07:34:37;;;;;;;22.35;7.43;;;;;;;;;;4859397;29;20033;-73
2022/02/23 07:37:03;;;;;;;23.35;8.85;;;;;;;;;;4857077;29;20045;-73
2022/02/23 07:39:29;;;;;;;9.85;4.55;;;;;;;;;;4860668;29;20044;-73
2022/02/23 07:41:55;;;;;;;10.68;4.22;;;;;;;;;;4860364;29;20025;-73
2022/02/23 07:44:21;;;;;;;11.13;3.78;;;;;;;;;;4863763;29;20044;-73
2022/02/23 07:46:47;;;;;;;9.27;3.58;;;;;;;;;;4863201;29;20751;-73
2022/02/23 07:49:13;;;;;;;10.80;4.10;;;;;;;;;;4858899;29;20042;-74
2022/02/23 07:51:39;;;;;;;11.90;4.88;;;;;;;;;;4861379;29;20079;-73
2022/02/23 07:54:06;;;;;;;18.88;5.85;;;;;;;;;;4861557;29;20052;-73
2022/02/23 07:56:32;;;;;;;14.77;6.80;;;;;;;;;;4861663;29;20037;-73
2022/02/23 07:58:58;;;;;;;22.27;8.70;;;;;;;;;;4860103;29;20034;-73
2022/02/23 08:01:28;;;;;;;25.75;8.38;;;;;;;;;;4862537;29;20029;-73
2022/02/23 08:03:54;;;;;;;20.80;9.40;;;;;;;;;;4860414;29;20044;-73
2022/02/23 08:06:20;;;;;;;27.20;10.85;;;;;;;;;;4862004;29;20045;-73
2022/02/23 08:08:46;;;;;;;19.45;8.95;;;;;;;;;;4859785;29;20472;-73
2022/02/23 08:11:12;;;;;;;22.08;8.52;;;;;;;;;;4864822;29;20588;-73
2022/02/23 08:13:38;;;;;;;17.10;6.10;;;;;;;;;;4861318;29;20037;-73
2022/02/23 08:21:34;;;;;;;15.93;6.43;;;;;;;;;;4859878;29;20045;-73
2022/02/23 08:24:00;;;;;;;18.25;5.25;;;;;;;;;;4860650;29;20043;-73
2022/02/23 08:26:26;;;;;;;10.15;4.10;;;;;;;;;;4866145;29;20539;-73
2022/02/23 08:28:52;;;;;;;12.77;4.45;;;;;;;;;;4864712;29;20017;-73
2022/02/23 08:31:18;;;;;;;13.63;5.55;;;;;;;;;;4860670;29;20459;-73
2022/02/23 08:33:45;;;;;;;15.95;6.85;;;;;;;;;;4859899;29;20036;-73
2022/02/23 08:36:11;;;;;;;16.85;5.22;;;;;;;;;;4864032;29;20045;-74
2022/02/23 08:38:37;;;;;;;8.32;3.20;;;;;;;;;;4865333;29;20079;-73
2022/02/23 08:41:04;;;;;;;9.35;4.70;;;;;;;;;;4860033;29;20081;-73
2022/02/23 08:43:30;;;;;;;10.40;3.70;;;;;;;;;;4863427;29;20037;-73
2022/02/23 08:45:56;;;;;;;7.80;2.92;;;;;;;;;;4860379;29;20044;-72
2022/02/23 08:48:22;;;;;;;10.50;2.70;;;;;;;;;;4860293;29;20040;-72
2022/02/23 08:50:48;;;;;;;13.52;4.55;;;;;;;;;;4858121;29;20048;-73
2022/02/23 08:53:14;;;;;;;15.85;5.22;;;;;;;;;;4859907;29;20384;-74
2022/02/23 08:55:40;;;;;;;10.45;4.63;;;;;;;;;;4861765;29;20404;-74
2022/02/23 08:58:06;;;;;;;29.20;5.72;;;;;;;;;;4862511;29;20041;-74
2022/02/23 09:00:32;;;;;;;12.75;3.95;;;;;;;;;;4869219;29;20053;-74
2022/02/23 09:02:58;;;;;;;12.70;4.60;;;;;;;;;;4868180;29;20041;-73
2022/02/23 09:05:24;;;;;;;8.70;3.65;;;;;;;;;;4859804;29;20468;-73
2022/02/23 09:07:50;;;;;;;8.63;2.95;;;;;;;;;;4868737;29;20083;-73
2022/02/23 09:10:16;;;;;;;10.30;2.47;;;;;;;;;;4865786;29;20052;-73
2022/02/23 09:12:43;;;;;;;9.18;2.90;;;;;;;;;;4864581;29;20045;-74
2022/02/23 09:15:12;;;;;;;6.70;2.95;;;;;;;;;;4868928;29;20051;-73
2022/02/23 09:17:38;;;;;;;8.32;2.50;;;;;;;;;;4863175;29;20077;-73
2022/02/23 09:20:04;;;;;;;8.18;2.85;;;;;;;;;;4864957;29;20034;-73
2022/02/23 09:22:30;;;;;;;6.03;2.30;;;;;;;;;;4867143;29;20036;-73
2022/02/23 09:24:56;;;;;;;6.60;2.25;;;;;;;;;;4864565;29;20441;-72
2022/02/23 09:27:22;;;;;;;7.72;2.50;;;;;;;;;;4866084;29;20093;-73
2022/02/23 09:29:48;;;;;;;6.97;2.50;;;;;;;;;;4861114;29;20140;-73
2022/02/23 09:32:15;;;;;;;9.52;2.85;;;;;;;;;;4857393;29;20381;-73
2022/02/23 09:34:42;;;;;;;9.07;2.05;;;;;;;;;;4860491;29;20539;-73
2022/02/23 09:37:08;;;;;;;9.00;2.40;;;;;;;;;;4865367;29;20120;-73
2022/02/23 09:39:34;;;;;;;9.40;2.33;;;;;;;;;;4866914;29;20033;-73
2022/02/23 09:42:01;;;;;;;5.68;2.05;;;;;;;;;;4863294;29;20045;-73
2022/02/23 09:44:27;;;;;;;6.18;2.05;;;;;;;;;;4863094;29;20043;-74
2022/02/23 09:46:53;;;;;;;10.20;2.55;;;;;;;;;;4869271;29;20120;-73
2022/02/23 09:49:19;;;;;;;7.38;2.95;;;;;;;;;;4861324;29;20407;-74
2022/02/23 09:51:47;;;;;;;9.77;3.30;;;;;;;;;;4860320;29;20040;-73
2022/02/23 09:54:13;;;;;;;12.40;3.00;;;;;;;;;;4861475;29;20037;-74
2022/02/23 09:56:39;;;;;;;10.88;3.40;;;;;;;;;;4863791;29;20033;-73
2022/02/23 09:59:06;;;;;;;8.45;2.70;;;;;;;;;;4860697;29;20046;-73
2022/02/23 10:01:33;;;;;;;9.77;2.53;;;;;;;;;;4867015;29;20108;-73
2022/02/23 10:04:01;;;;;;;16.73;2.33;;;;;;;;;;4861799;29;20918;-73
2022/02/23 10:06:31;;;;;;;7.93;1.50;;;;;;;;;;4863623;29;20037;-74
2022/02/23 10:09:00;;;;;;;10.07;1.52;;;;;;;;;;4865920;29;20831;-73
2022/02/23 10:11:28;;;;;;;7.53;2.28;;;;;;;;;;4856512;29;20718;-73
2022/02/23 10:13:56;;;;;;;7.50;1.90;;;;;;;;;;4861098;29;20049;-73
2022/02/23 10:16:25;;;;;;;9.75;2.55;;;;;;;;;;4863678;29;20543;-73
2022/02/23 10:19:04;;;;;;;9.27;3.22;;;;;;;;;;4861259;29;20036;-73
2022/02/23 10:21:43;;;;;;;11.23;2.63;;;;;;;;;;4863529;29;21405;-73
2022/02/23 10:24:20;;;;;;;9.60;2.20;;;;;;;;;;4865651;29;20034;-73
2022/02/23 10:26:56;;;;;;;7.60;2.00;;;;;;;;;;4863326;29;20041;-73
2022/02/23 10:29:25;;;;;;;10.57;2.13;;;;;;;;;;4868150;29;20037;-73
2022/02/23 10:31:51;;;;;;;7.18;2.10;;;;;;;;;;4866900;29;20040;-73
2022/02/23 10:34:20;;;;;;;10.25;2.20;;;;;;;;;;4860132;29;20033;-73
2022/02/23 10:36:57;;;;;;;7.10;1.50;;;;;;;;;;4864658;29;20037;-73
2022/02/23 10:39:23;;;;;;;5.45;1.60;;;;;;;;;;4863335;29;20121;-73
2022/02/23 10:42:02;;;;;;;4.72;1.38;;;;;;;;;;4867459;29;20040;-73
2022/02/23 10:44:29;;;;;;;5.35;1.40;;;;;;;;;;4863406;29;20757;-74
2022/02/23 10:46:55;;;;;;;5.97;1.55;;;;;;;;;;4869530;29;20040;-73
2022/02/23 10:49:21;;;;;;;4.07;1.15;;;;;;;;;;4870314;29;20108;-73
2022/02/23 10:51:48;;;;;;;6.20;1.08;;;;;;;;;;4865913;29;20700;-73
2022/02/23 10:54:14;;;;;;;5.15;1.13;;;;;;;;;;4861295;29;20037;-73
2022/02/23 10:56:45;;;;;;;5.00;1.20;;;;;;;;;;4870971;29;20104;-73
2022/02/23 10:59:11;;;;;;;2.83;0.90;;;;;;;;;;4844160;29;20120;-73
2022/02/23 11:01:38;;;;;;;4.10;0.80;;;;;;;;;;4865717;29;20037;-73
2022/02/23 11:04:05;;;;;;;4.72;1.10;;;;;;;;;;4862134;29;20037;-73
2022/02/23 11:06:32;;;;;;;5.85;0.75;;;;;;;;;;4865093;29;20037;-73
2022/02/23 11:08:58;;;;;;;3.83;0.80;;;;;;;;;;4862896;29;20045;-72
2022/02/23 11:11:26;;;;;;;3.60;0.60;;;;;;;;;;4862124;29;20728;-73
2022/02/23 11:13:52;;;;;;;2.08;0.60;;;;;;;;;;4863675;29;20117;-74
2022/02/23 11:16:19;;;;;;;3.55;0.93;;;;;;;;;;4859270;29;20045;-73
2022/02/23 11:18:48;;;;;;;6.80;0.80;;;;;;;;;;4860197;29;20049;-72
2022/02/23 11:21:18;;;;;;;2.85;0.73;;;;;;;;;;4861301;29;20033;-72
2022/02/23 11:23:45;;;;;;;6.35;1.58;;;;;;;;;;4863882;29;20554;-74
2022/02/23 11:26:14;;;;;;;9.38;0.70;;;;;;;;;;4869187;29;20133;-74
2022/02/23 11:28:45;;;;;;;5.00;0.90;;;;;;;;;;4862641;29;20044;-74
2022/02/23 11:31:13;;;;;;;3.30;0.50;;;;;;;;;;4863244;29;20042;-74
2022/02/23 11:33:58;;;;;;;4.72;0.60;;;;;;;;;;4866088;29;20041;-74
2022/02/23 11:36:31;;;;;;;3.05;0.80;;;;;;;;;;4863028;29;20029;-74
2022/02/23 11:38:58;;;;;;;5.38;0.70;;;;;;;;;;4858990;29;20045;-74
2022/02/23 11:41:37;;;;;;;4.25;0.77;;;;;;;;;;4864593;29;20041;-74
2022/02/23 11:44:10;;;;;;;2.70;0.70;;;;;;;;;;4862354;29;20515;-73
2022/02/23 11:46:51;;;;;;;5.50;0.65;;;;;;;;;;4864022;29;20029;-74
2022/02/23 11:49:18;;;;;;;3.97;0.75;;;;;;;;;;4857648;29;20116;-74
2022/02/23 11:51:44;;;;;;;2.58;0.50;;;;;;;;;;4869430;29;20041;-74
2022/02/23 11:54:12;;;;;;;1.70;0.40;;;;;;;;;;4857397;29;20035;-77
2022/02/23 11:56:46;;;;;;;5.95;0.70;;;;;;;;;;4859033;29;20795;-76
2022/02/23 11:59:32;;;;;;;2.97;0.45;;;;;;;;;;4865681;29;20185;-76
2022/02/23 12:02:01;;;;;;;2.28;0.50;;;;;;;;;;4861556;29;20093;-76
2022/02/23 12:04:46;;;;;;;4.30;0.70;;;;;;;;;;4860657;29;20041;-76
2022/02/23 12:07:13;;;;;;;3.33;0.40;;;;;;;;;;4864282;29;20100;-75
2022/02/23 12:09:57;;;;;;;1.02;0.30;;;;;;;;;;4861436;29;20044;-76
2022/02/23 12:12:30;;;;;;;1.80;0.30;;;;;;;;;;4859521;29;20062;-75
2022/02/23 12:14:56;;;;;;;2.00;0.43;;;;;;;;;;4856405;29;20029;-76
2022/02/23 12:17:41;;;;;;;2.20;0.50;;;;;;;;;;4859253;29;20037;-76
2022/02/23 12:20:07;;;;;;;1.98;0.30;;;;;;;;;;4859032;29;20060;-76
2022/02/23 12:22:37;;;;;;;5.63;0.88;;;;;;;;;;4844947;29;20685;-76
2022/02/23 12:25:04;;;;;;;4.25;0.77;;;;;;;;;;4859965;29;20090;-76
2022/02/23 12:27:30;;;;;;;1.50;0.40;;;;;;;;;;4864749;29;20041;-76
2022/02/23 12:29:56;;;;;;;2.83;0.60;;;;;;;;;;4863776;29;20517;-76
2022/02/23 12:32:26;;;;;;;5.10;0.50;;;;;;;;;;4861391;29;20038;-76
2022/02/23 12:34:57;;;;;;;3.03;0.40;;;;;;;;;;4861260;29;20033;-76
2022/02/23 12:37:24;;;;;;;3.22;0.50;;;;;;;;;;4870107;29;20053;-76
2022/02/23 12:39:50;;;;;;;2.28;0.40;;;;;;;;;;4867190;29;20392;-76
2022/02/23 12:42:16;;;;;;;3.42;0.88;;;;;;;;;;4872984;29;20037;-76
2022/02/23 12:44:47;;;;;;;2.88;0.60;;;;;;;;;;4872829;29;20476;-76
2022/02/23 12:47:15;;;;;;;8.85;0.70;;;;;;;;;;4869071;29;20036;-76
2022/02/23 12:49:42;;;;;;;3.85;0.88;;;;;;;;;;4868653;29;20037;-76
2022/02/23 12:52:08;;;;;;;3.58;0.77;;;;;;;;;;4868366;29;20033;-76
2022/02/23 12:54:35;;;;;;;3.65;0.70;;;;;;;;;;4867925;29;20033;-76
2022/02/23 12:57:02;;;;;;;3.78;0.75;;;;;;;;;;4868898;29;20030;-76
2022/02/23 12:59:29;;;;;;;4.22;0.60;;;;;;;;;;4864728;29;20037;-76
2022/02/23 13:01:57;;;;;;;3.08;0.77;;;;;;;;;;4863309;29;20041;-77
2022/02/23 13:04:33;;;;;;;5.32;0.68;;;;;;;;;;4863375;29;20041;-76
2022/02/23 13:07:03;;;;;;;2.60;0.65;;;;;;;;;;4861753;29;20128;-74
2022/02/23 13:09:39;;;;;;;3.92;0.40;;;;;;;;;;4866014;29;20054;-77
2022/02/23 13:12:07;;;;;;;2.72;0.45;;;;;;;;;;4866616;29;20820;-76
2022/02/23 13:14:37;;;;;;;3.50;0.63;;;;;;;;;;4860455;29;20072;-76
2022/02/23 13:17:05;;;;;;;3.30;0.50;;;;;;;;;;4869275;29;20040;-77
2022/02/23 13:19:33;;;;;;;3.63;0.40;;;;;;;;;;4868474;29;20037;-76
2022/02/23 13:22:03;;;;;;;3.85;0.30;;;;;;;;;;4870344;29;20052;-74
2022/02/23 13:24:39;;;;;;;2.75;0.43;;;;;;;;;;4864478;29;20029;-75
2022/02/23 13:27:07;;;;;;;4.30;0.30;;;;;;;;;;4864904;29;20042;-75
2022/02/23 13:29:33;;;;;;;1.05;0.25;;;;;;;;;;4866666;29;20040;-75
2022/02/23 13:32:02;;;;;;;1.00;0.22;;;;;;;;;;4865016;29;20269;-75
2022/02/23 13:34:38;;;;;;;5.03;0.40;;;;;;;;;;4862287;29;20037;-75
2022/02/23 13:37:25;;;;;;;2.45;0.55;;;;;;;;;;4862974;29;20068;-75
2022/02/23 13:40:04;;;;;;;3.28;0.47;;;;;;;;;;4869995;29;20032;-75
2022/02/23 13:42:39;;;;;;;2.42;0.45;;;;;;;;;;4868278;29;20041;-75
2022/02/23 13:45:11;;;;;;;4.00;0.65;;;;;;;;;;4862994;29;20033;-75
2022/02/23 13:47:38;;;;;;;3.10;0.60;;;;;;;;;;4861314;29;20383;-75
2022/02/23 13:50:07;;;;;;;2.33;0.40;;;;;;;;;;4876144;29;20036;-75
2022/02/23 13:52:41;;;;;;;3.90;0.47;;;;;;;;;;4866140;29;20067;-75
2022/02/23 13:55:11;;;;;;;3.30;0.50;;;;;;;;;;4871182;29;20033;-75
2022/02/23 13:57:48;;;;;;;2.45;0.38;;;;;;;;;;4866292;29;20120;-75
2022/02/23 14:00:17;;;;;;;1.35;0.30;;;;;;;;;;4860478;29;20370;-75
2022/02/23 14:02:44;;;;;;;4.18;0.30;;;;;;;;;;4872659;29;20447;-75
2022/02/23 14:05:12;;;;;;;1.67;0.40;;;;;;;;;;4876885;29;20073;-75
2022/02/23 14:07:39;;;;;;;7.63;0.50;;;;;;;;;;4870335;29;20049;-75
2022/02/23 14:10:07;;;;;;;2.10;0.55;;;;;;;;;;4861956;29;20041;-76
2022/02/23 14:12:35;;;;;;;2.53;0.85;;;;;;;;;;4870426;29;20038;-74
2022/02/23 14:15:02;;;;;;;3.33;0.50;;;;;;;;;;4871001;29;20467;-75
2022/02/23 14:17:29;;;;;;;6.00;0.90;;;;;;;;;;4865218;29;20693;-75
2022/02/23 14:20:10;;;;;;;3.28;0.90;;;;;;;;;;4867751;29;20037;-75
2022/02/23 14:22:38;;;;;;;3.83;0.65;;;;;;;;;;4861250;29;20461;-76
2022/02/23 14:25:06;;;;;;;5.70;0.70;;;;;;;;;;4864635;29;20029;-74
2022/02/23 14:27:34;;;;;;;4.22;0.80;;;;;;;;;;4863512;29;20112;-75
2022/02/23 14:30:00;;;;;;;5.20;0.90;;;;;;;;;;4867613;29;20475;-75
2022/02/23 14:32:29;;;;;;;3.50;0.63;;;;;;;;;;4861870;29;20076;-75
2022/02/23 14:35:02;;;;;;;2.80;0.60;;;;;;;;;;4863213;29;20052;-75
2022/02/23 14:37:28;;;;;;;3.10;0.63;;;;;;;;;;4859521;29;20404;-75
2022/02/23 14:39:55;;;;;;;4.57;0.70;;;;;;;;;;4868106;29;20033;-75
2022/02/23 14:42:21;;;;;;;3.13;0.73;;;;;;;;;;4866010;29;20104;-75